sensor_id;sensor_type;location;lat;lon;timestamp;P1;durP1;ratioP1;P2;durP2;ratioP2
25868;SDS011;13688;53.154;18.136;2023-03-04T00:04:10;26.17;;;16.87;;
25868;SDS011;13688;53.154;18.136;2023-03-04T00:09:33;28.10;;;16.33;;
25868;SDS011;13688;53.154;18.136;2023-03-04T00:14:56;24.33;;;14.23;;
25868;SDS011;13688;53.154;18.136;2023-03-04T00:20:21;27.57;;;13.97;;
25868;SDS011;13688;53.154;18.136;2023-03-04T00:25:45;22.73;;;14.10;;
25868;SDS011;13688;53.154;18.136;2023-03-04T00:31:10;28.53;;;14.40;;
25868;SDS011;13688;53.154;18.136;2023-03-04T00:36:35;26.07;;;15.20;;
25868;SDS011;13688;53.154;18.136;2023-03-04T00:42:00;24.57;;;14.37;;
25868;SDS011;13688;53.154;18.136;2023-03-04T00:47:22;25.90;;;15.23;;
25868;SDS011;13688;53.154;18.136;2023-03-04T00:52:44;29.47;;;15.33;;
25868;SDS011;13688;53.154;18.136;2023-03-04T00:58:07;28.33;;;14.67;;
25868;SDS011;13688;53.154;18.136;2023-03-04T01:03:31;27.20;;;15.63;;
25868;SDS011;13688;53.154;18.136;2023-03-04T01:08:54;26.60;;;15.30;;
25868;SDS011;13688;53.154;18.136;2023-03-04T01:14:18;28.02;;;15.10;;
25868;SDS011;13688;53.154;18.136;2023-03-04T01:19:41;31.50;;;16.13;;
25868;SDS011;13688;53.154;18.136;2023-03-04T01:25:06;26.00;;;14.70;;
25868;SDS011;13688;53.154;18.136;2023-03-04T01:30:29;26.33;;;13.73;;
25868;SDS011;13688;53.154;18.136;2023-03-04T01:35:52;31.63;;;16.87;;
25868;SDS011;13688;53.154;18.136;2023-03-04T01:41:18;27.57;;;15.63;;
25868;SDS011;13688;53.154;18.136;2023-03-04T01:46:43;26.80;;;14.90;;
25868;SDS011;13688;53.154;18.136;2023-03-04T01:52:09;27.57;;;14.43;;
25868;SDS011;13688;53.154;18.136;2023-03-04T01:57:33;26.77;;;14.53;;
25868;SDS011;13688;53.154;18.136;2023-03-04T02:03:16;30.03;;;16.00;;
25868;SDS011;13688;53.154;18.136;2023-03-04T02:08:39;34.37;;;16.10;;
25868;SDS011;13688;53.154;18.136;2023-03-04T02:14:02;29.70;;;16.00;;
25868;SDS011;13688;53.154;18.136;2023-03-04T02:19:45;24.87;;;14.73;;
25868;SDS011;13688;53.154;18.136;2023-03-04T02:25:26;26.03;;;14.50;;
25868;SDS011;13688;53.154;18.136;2023-03-04T02:31:37;29.70;;;14.10;;
25868;SDS011;13688;53.154;18.136;2023-03-04T02:37:02;25.57;;;13.67;;
25868;SDS011;13688;53.154;18.136;2023-03-04T02:42:38;26.57;;;14.57;;
25868;SDS011;13688;53.154;18.136;2023-03-04T02:48:01;29.83;;;14.43;;
25868;SDS011;13688;53.154;18.136;2023-03-04T02:53:26;24.77;;;13.80;;
25868;SDS011;13688;53.154;18.136;2023-03-04T02:58:49;25.80;;;12.63;;
25868;SDS011;13688;53.154;18.136;2023-03-04T03:04:11;24.43;;;12.93;;
25868;SDS011;13688;53.154;18.136;2023-03-04T03:09:35;25.00;;;12.83;;
25868;SDS011;13688;53.154;18.136;2023-03-04T03:14:57;21.50;;;11.80;;
25868;SDS011;13688;53.154;18.136;2023-03-04T03:20:20;24.90;;;11.50;;
25868;SDS011;13688;53.154;18.136;2023-03-04T03:25:43;22.53;;;11.97;;
25868;SDS011;13688;53.154;18.136;2023-03-04T03:31:06;24.50;;;12.00;;
25868;SDS011;13688;53.154;18.136;2023-03-04T03:36:28;20.93;;;12.37;;
25868;SDS011;13688;53.154;18.136;2023-03-04T03:41:51;23.77;;;10.57;;
25868;SDS011;13688;53.154;18.136;2023-03-04T03:47:13;19.07;;;10.73;;
25868;SDS011;13688;53.154;18.136;2023-03-04T03:52:37;24.20;;;10.47;;
25868;SDS011;13688;53.154;18.136;2023-03-04T03:58:00;21.70;;;10.00;;
25868;SDS011;13688;53.154;18.136;2023-03-04T04:03:22;23.63;;;10.57;;
25868;SDS011;13688;53.154;18.136;2023-03-04T04:08:45;22.27;;;9.90;;
25868;SDS011;13688;53.154;18.136;2023-03-04T04:14:08;22.03;;;9.53;;
25868;SDS011;13688;53.154;18.136;2023-03-04T04:19:31;22.57;;;8.80;;
25868;SDS011;13688;53.154;18.136;2023-03-04T04:24:53;22.80;;;9.13;;
25868;SDS011;13688;53.154;18.136;2023-03-04T04:30:16;21.13;;;8.47;;
25868;SDS011;13688;53.154;18.136;2023-03-04T04:35:39;22.40;;;7.57;;
25868;SDS011;13688;53.154;18.136;2023-03-04T04:41:03;16.63;;;7.33;;
25868;SDS011;13688;53.154;18.136;2023-03-04T04:46:32;18.60;;;8.03;;
25868;SDS011;13688;53.154;18.136;2023-03-04T04:51:55;18.80;;;7.43;;
25868;SDS011;13688;53.154;18.136;2023-03-04T04:57:17;19.42;;;7.87;;
25868;SDS011;13688;53.154;18.136;2023-03-04T05:02:40;18.97;;;7.87;;
25868;SDS011;13688;53.154;18.136;2023-03-04T05:08:03;24.13;;;8.03;;
25868;SDS011;13688;53.154;18.136;2023-03-04T05:13:25;17.97;;;7.77;;
25868;SDS011;13688;53.154;18.136;2023-03-04T05:18:48;26.37;;;8.87;;
25868;SDS011;13688;53.154;18.136;2023-03-04T05:24:10;29.33;;;8.67;;
25868;SDS011;13688;53.154;18.136;2023-03-04T05:29:33;19.17;;;7.97;;
25868;SDS011;13688;53.154;18.136;2023-03-04T05:34:56;31.33;;;8.50;;
25868;SDS011;13688;53.154;18.136;2023-03-04T05:40:19;24.57;;;7.37;;
25868;SDS011;13688;53.154;18.136;2023-03-04T05:45:44;29.97;;;7.97;;
25868;SDS011;13688;53.154;18.136;2023-03-04T05:51:06;27.77;;;8.57;;
25868;SDS011;13688;53.154;18.136;2023-03-04T05:56:29;23.13;;;7.40;;
25868;SDS011;13688;53.154;18.136;2023-03-04T06:01:51;21.93;;;7.07;;
25868;SDS011;13688;53.154;18.136;2023-03-04T06:07:13;26.47;;;8.43;;
25868;SDS011;13688;53.154;18.136;2023-03-04T06:12:36;27.70;;;8.80;;
25868;SDS011;13688;53.154;18.136;2023-03-04T06:17:59;15.73;;;6.63;;
25868;SDS011;13688;53.154;18.136;2023-03-04T06:23:21;23.87;;;7.47;;
25868;SDS011;13688;53.154;18.136;2023-03-04T06:28:44;28.60;;;8.70;;
25868;SDS011;13688;53.154;18.136;2023-03-04T06:34:09;26.05;;;8.05;;
25868;SDS011;13688;53.154;18.136;2023-03-04T06:39:32;28.70;;;7.87;;
25868;SDS011;13688;53.154;18.136;2023-03-04T06:44:54;23.23;;;6.80;;
25868;SDS011;13688;53.154;18.136;2023-03-04T06:50:19;19.20;;;7.07;;
25868;SDS011;13688;53.154;18.136;2023-03-04T06:55:41;28.47;;;7.43;;
25868;SDS011;13688;53.154;18.136;2023-03-04T07:01:11;20.60;;;6.90;;
25868;SDS011;13688;53.154;18.136;2023-03-04T07:06:35;25.47;;;7.37;;
25868;SDS011;13688;53.154;18.136;2023-03-04T07:11:59;23.43;;;7.37;;
25868;SDS011;13688;53.154;18.136;2023-03-04T07:17:21;26.67;;;6.73;;
25868;SDS011;13688;53.154;18.136;2023-03-04T07:22:43;29.43;;;7.63;;
25868;SDS011;13688;53.154;18.136;2023-03-04T07:28:06;28.70;;;7.17;;
25868;SDS011;13688;53.154;18.136;2023-03-04T07:33:28;24.72;;;7.75;;
25868;SDS011;13688;53.154;18.136;2023-03-04T07:38:50;26.53;;;7.73;;
25868;SDS011;13688;53.154;18.136;2023-03-04T07:44:13;27.63;;;8.17;;
25868;SDS011;13688;53.154;18.136;2023-03-04T07:49:35;29.10;;;7.83;;
25868;SDS011;13688;53.154;18.136;2023-03-04T07:54:58;31.03;;;7.43;;
25868;SDS011;13688;53.154;18.136;2023-03-04T08:00:22;28.47;;;7.03;;
25868;SDS011;13688;53.154;18.136;2023-03-04T08:05:44;24.90;;;7.10;;
25868;SDS011;13688;53.154;18.136;2023-03-04T08:11:07;23.03;;;7.50;;
25868;SDS011;13688;53.154;18.136;2023-03-04T08:16:32;26.70;;;7.97;;
25868;SDS011;13688;53.154;18.136;2023-03-04T08:21:55;24.70;;;7.45;;
25868;SDS011;13688;53.154;18.136;2023-03-04T08:27:17;24.03;;;8.20;;
25868;SDS011;13688;53.154;18.136;2023-03-04T08:32:40;31.77;;;8.20;;
25868;SDS011;13688;53.154;18.136;2023-03-04T08:38:03;30.07;;;8.33;;
25868;SDS011;13688;53.154;18.136;2023-03-04T08:43:25;26.93;;;8.07;;
25868;SDS011;13688;53.154;18.136;2023-03-04T08:48:48;28.03;;;8.47;;
25868;SDS011;13688;53.154;18.136;2023-03-04T08:54:11;27.50;;;8.17;;
25868;SDS011;13688;53.154;18.136;2023-03-04T08:59:33;23.60;;;7.60;;
25868;SDS011;13688;53.154;18.136;2023-03-04T09:04:56;19.03;;;7.50;;
25868;SDS011;13688;53.154;18.136;2023-03-04T09:10:18;15.87;;;6.70;;
25868;SDS011;13688;53.154;18.136;2023-03-04T09:15:45;14.37;;;5.97;;
25868;SDS011;13688;53.154;18.136;2023-03-04T09:21:09;19.53;;;7.10;;
25868;SDS011;13688;53.154;18.136;2023-03-04T09:26:32;15.10;;;6.40;;
25868;SDS011;13688;53.154;18.136;2023-03-04T09:31:54;12.17;;;4.83;;
25868;SDS011;13688;53.154;18.136;2023-03-04T09:37:18;10.73;;;4.07;;
25868;SDS011;13688;53.154;18.136;2023-03-04T09:42:43;7.23;;;3.80;;
25868;SDS011;13688;53.154;18.136;2023-03-04T09:48:15;10.87;;;4.10;;
25868;SDS011;13688;53.154;18.136;2023-03-04T09:59:31;10.87;;;3.73;;
25868;SDS011;13688;53.154;18.136;2023-03-04T10:04:59;10.10;;;3.72;;
25868;SDS011;13688;53.154;18.136;2023-03-04T10:10:32;9.10;;;2.93;;
25868;SDS011;13688;53.154;18.136;2023-03-04T10:15:57;9.70;;;3.10;;
25868;SDS011;13688;53.154;18.136;2023-03-04T10:21:38;9.63;;;3.13;;
25868;SDS011;13688;53.154;18.136;2023-03-04T10:27:01;8.25;;;2.62;;
25868;SDS011;13688;53.154;18.136;2023-03-04T10:32:27;8.13;;;2.67;;
25868;SDS011;13688;53.154;18.136;2023-03-04T10:37:51;7.77;;;2.77;;
25868;SDS011;13688;53.154;18.136;2023-03-04T10:43:16;10.28;;;3.33;;
25868;SDS011;13688;53.154;18.136;2023-03-04T10:48:39;10.77;;;3.30;;
25868;SDS011;13688;53.154;18.136;2023-03-04T10:54:51;9.10;;;2.47;;
25868;SDS011;13688;53.154;18.136;2023-03-04T10:59:43;10.43;;;2.00;;
25868;SDS011;13688;53.154;18.136;2023-03-04T11:05:36;5.67;;;1.60;;
25868;SDS011;13688;53.154;18.136;2023-03-04T11:10:58;4.10;;;1.13;;
25868;SDS011;13688;53.154;18.136;2023-03-04T11:16:31;3.47;;;0.97;;
25868;SDS011;13688;53.154;18.136;2023-03-04T11:21:56;1.60;;;0.80;;
25868;SDS011;13688;53.154;18.136;2023-03-04T11:27:23;3.13;;;1.10;;
25868;SDS011;13688;53.154;18.136;2023-03-04T11:33:00;2.58;;;0.80;;
25868;SDS011;13688;53.154;18.136;2023-03-04T11:43:59;2.60;;;0.95;;
25868;SDS011;13688;53.154;18.136;2023-03-04T11:55:28;1.53;;;0.60;;
25868;SDS011;13688;53.154;18.136;2023-03-04T12:01:08;2.10;;;0.85;;
25868;SDS011;13688;53.154;18.136;2023-03-04T12:06:53;3.40;;;1.12;;
25868;SDS011;13688;53.154;18.136;2023-03-04T12:12:29;1.98;;;0.72;;
25868;SDS011;13688;53.154;18.136;2023-03-04T12:18:17;2.20;;;0.97;;
25868;SDS011;13688;53.154;18.136;2023-03-04T12:29:40;2.77;;;1.05;;
25868;SDS011;13688;53.154;18.136;2023-03-04T12:59:12;1.27;;;0.60;;
25868;SDS011;13688;53.154;18.136;2023-03-04T13:04:39;2.27;;;0.60;;
25868;SDS011;13688;53.154;18.136;2023-03-04T13:10:12;11.93;;;0.80;;
25868;SDS011;13688;53.154;18.136;2023-03-04T13:15:36;2.30;;;0.63;;
25868;SDS011;13688;53.154;18.136;2023-03-04T13:21:04;2.47;;;0.80;;
25868;SDS011;13688;53.154;18.136;2023-03-04T13:26:34;5.00;;;0.90;;
25868;SDS011;13688;53.154;18.136;2023-03-04T13:32:04;1.90;;;0.80;;
25868;SDS011;13688;53.154;18.136;2023-03-04T13:38:19;3.97;;;1.30;;
25868;SDS011;13688;53.154;18.136;2023-03-04T13:43:23;3.47;;;1.07;;
25868;SDS011;13688;53.154;18.136;2023-03-04T13:54:29;1.27;;;0.70;;
25868;SDS011;13688;53.154;18.136;2023-03-04T13:59:55;3.80;;;0.80;;
25868;SDS011;13688;53.154;18.136;2023-03-04T14:05:21;2.43;;;1.00;;
25868;SDS011;13688;53.154;18.136;2023-03-04T14:10:44;1.80;;;0.73;;
25868;SDS011;13688;53.154;18.136;2023-03-04T14:16:14;2.40;;;1.07;;
25868;SDS011;13688;53.154;18.136;2023-03-04T14:21:42;2.40;;;0.80;;
25868;SDS011;13688;53.154;18.136;2023-03-04T14:27:09;1.55;;;0.80;;
25868;SDS011;13688;53.154;18.136;2023-03-04T14:32:30;2.10;;;0.70;;
25868;SDS011;13688;53.154;18.136;2023-03-04T14:37:58;3.87;;;0.90;;
25868;SDS011;13688;53.154;18.136;2023-03-04T14:43:27;2.20;;;0.80;;
25868;SDS011;13688;53.154;18.136;2023-03-04T14:48:53;2.37;;;0.77;;
25868;SDS011;13688;53.154;18.136;2023-03-04T14:54:38;2.17;;;0.80;;
25868;SDS011;13688;53.154;18.136;2023-03-04T14:59:53;3.00;;;0.70;;
25868;SDS011;13688;53.154;18.136;2023-03-04T15:05:36;2.40;;;0.70;;
25868;SDS011;13688;53.154;18.136;2023-03-04T15:11:01;2.67;;;0.40;;
25868;SDS011;13688;53.154;18.136;2023-03-04T15:22:10;1.83;;;0.70;;
25868;SDS011;13688;53.154;18.136;2023-03-04T15:27:33;3.37;;;0.80;;
25868;SDS011;13688;53.154;18.136;2023-03-04T15:32:57;1.90;;;0.70;;
25868;SDS011;13688;53.154;18.136;2023-03-04T15:38:23;3.50;;;1.00;;
25868;SDS011;13688;53.154;18.136;2023-03-04T15:43:45;3.20;;;1.10;;
25868;SDS011;13688;53.154;18.136;2023-03-04T15:49:09;3.73;;;0.90;;
25868;SDS011;13688;53.154;18.136;2023-03-04T15:54:32;1.90;;;0.90;;
25868;SDS011;13688;53.154;18.136;2023-03-04T15:59:55;2.60;;;0.90;;
25868;SDS011;13688;53.154;18.136;2023-03-04T16:05:19;4.20;;;1.03;;
25868;SDS011;13688;53.154;18.136;2023-03-04T16:10:45;4.47;;;1.00;;
25868;SDS011;13688;53.154;18.136;2023-03-04T16:16:11;6.23;;;1.10;;
25868;SDS011;13688;53.154;18.136;2023-03-04T16:21:34;4.47;;;1.30;;
25868;SDS011;13688;53.154;18.136;2023-03-04T16:26:56;3.03;;;1.20;;
25868;SDS011;13688;53.154;18.136;2023-03-04T16:32:23;4.27;;;0.93;;
25868;SDS011;13688;53.154;18.136;2023-03-04T16:37:45;2.10;;;0.80;;
25868;SDS011;13688;53.154;18.136;2023-03-04T16:43:11;2.80;;;0.90;;
25868;SDS011;13688;53.154;18.136;2023-03-04T16:54:54;2.70;;;0.90;;
25868;SDS011;13688;53.154;18.136;2023-03-04T17:00:18;4.07;;;0.77;;
25868;SDS011;13688;53.154;18.136;2023-03-04T17:05:42;2.00;;;0.90;;
25868;SDS011;13688;53.154;18.136;2023-03-04T17:11:04;3.85;;;1.00;;
25868;SDS011;13688;53.154;18.136;2023-03-04T17:16:30;1.40;;;0.65;;
25868;SDS011;13688;53.154;18.136;2023-03-04T17:21:56;3.55;;;0.88;;
25868;SDS011;13688;53.154;18.136;2023-03-04T17:27:19;5.12;;;1.20;;
25868;SDS011;13688;53.154;18.136;2023-03-04T17:32:41;3.40;;;0.83;;
25868;SDS011;13688;53.154;18.136;2023-03-04T17:38:03;3.20;;;1.17;;
25868;SDS011;13688;53.154;18.136;2023-03-04T17:43:27;8.07;;;1.80;;
25868;SDS011;13688;53.154;18.136;2023-03-04T17:48:55;3.33;;;1.47;;
25868;SDS011;13688;53.154;18.136;2023-03-04T17:54:20;4.93;;;1.97;;
25868;SDS011;13688;53.154;18.136;2023-03-04T17:59:43;4.13;;;1.73;;
25868;SDS011;13688;53.154;18.136;2023-03-04T18:05:06;5.10;;;1.80;;
25868;SDS011;13688;53.154;18.136;2023-03-04T18:10:29;6.87;;;2.33;;
25868;SDS011;13688;53.154;18.136;2023-03-04T18:15:53;6.20;;;2.63;;
25868;SDS011;13688;53.154;18.136;2023-03-04T18:21:17;7.20;;;2.33;;
25868;SDS011;13688;53.154;18.136;2023-03-04T18:26:41;3.90;;;1.83;;
25868;SDS011;13688;53.154;18.136;2023-03-04T18:32:03;8.43;;;2.20;;
25868;SDS011;13688;53.154;18.136;2023-03-04T18:37:26;6.63;;;2.73;;
25868;SDS011;13688;53.154;18.136;2023-03-04T18:42:50;7.83;;;2.43;;
25868;SDS011;13688;53.154;18.136;2023-03-04T18:48:15;7.63;;;2.90;;
25868;SDS011;13688;53.154;18.136;2023-03-04T18:53:37;7.00;;;3.10;;
25868;SDS011;13688;53.154;18.136;2023-03-04T18:59:02;5.83;;;2.53;;
25868;SDS011;13688;53.154;18.136;2023-03-04T19:04:32;7.53;;;2.83;;
25868;SDS011;13688;53.154;18.136;2023-03-04T19:09:56;8.50;;;2.80;;
25868;SDS011;13688;53.154;18.136;2023-03-04T19:15:19;8.53;;;2.77;;
25868;SDS011;13688;53.154;18.136;2023-03-04T19:20:41;9.43;;;3.67;;
25868;SDS011;13688;53.154;18.136;2023-03-04T19:26:06;13.38;;;4.33;;
25868;SDS011;13688;53.154;18.136;2023-03-04T19:31:30;11.23;;;4.57;;
25868;SDS011;13688;53.154;18.136;2023-03-04T19:36:55;12.80;;;5.30;;
25868;SDS011;13688;53.154;18.136;2023-03-04T19:42:18;13.73;;;4.93;;
25868;SDS011;13688;53.154;18.136;2023-03-04T19:47:41;14.45;;;5.05;;
25868;SDS011;13688;53.154;18.136;2023-03-04T19:53:06;16.57;;;5.53;;
25868;SDS011;13688;53.154;18.136;2023-03-04T19:58:31;16.75;;;7.20;;
25868;SDS011;13688;53.154;18.136;2023-03-04T20:03:58;13.30;;;5.73;;
25868;SDS011;13688;53.154;18.136;2023-03-04T20:09:27;14.53;;;5.90;;
25868;SDS011;13688;53.154;18.136;2023-03-04T20:14:50;13.53;;;5.75;;
25868;SDS011;13688;53.154;18.136;2023-03-04T20:20:17;17.40;;;6.23;;
25868;SDS011;13688;53.154;18.136;2023-03-04T20:25:41;14.30;;;6.40;;
25868;SDS011;13688;53.154;18.136;2023-03-04T20:36:40;18.63;;;7.40;;
25868;SDS011;13688;53.154;18.136;2023-03-04T20:42:05;17.87;;;7.00;;
25868;SDS011;13688;53.154;18.136;2023-03-04T20:47:30;18.70;;;6.67;;
25868;SDS011;13688;53.154;18.136;2023-03-04T20:52:55;18.50;;;6.23;;
25868;SDS011;13688;53.154;18.136;2023-03-04T20:58:20;19.37;;;6.22;;
25868;SDS011;13688;53.154;18.136;2023-03-04T21:03:43;23.33;;;7.73;;
25868;SDS011;13688;53.154;18.136;2023-03-04T21:09:15;22.00;;;6.30;;
25868;SDS011;13688;53.154;18.136;2023-03-04T21:14:39;20.67;;;7.10;;
25868;SDS011;13688;53.154;18.136;2023-03-04T21:20:04;23.53;;;7.90;;
25868;SDS011;13688;53.154;18.136;2023-03-04T21:25:28;21.27;;;8.20;;
25868;SDS011;13688;53.154;18.136;2023-03-04T21:30:51;26.63;;;8.80;;
25868;SDS011;13688;53.154;18.136;2023-03-04T21:36:14;30.67;;;10.20;;
25868;SDS011;13688;53.154;18.136;2023-03-04T21:41:37;26.73;;;9.63;;
25868;SDS011;13688;53.154;18.136;2023-03-04T21:47:02;30.10;;;10.58;;
25868;SDS011;13688;53.154;18.136;2023-03-04T21:52:28;30.25;;;10.88;;
25868;SDS011;13688;53.154;18.136;2023-03-04T21:57:50;36.30;;;13.48;;
25868;SDS011;13688;53.154;18.136;2023-03-04T22:03:15;31.68;;;12.23;;
25868;SDS011;13688;53.154;18.136;2023-03-04T22:08:39;35.60;;;13.98;;
25868;SDS011;13688;53.154;18.136;2023-03-04T22:14:04;35.33;;;13.43;;
25868;SDS011;13688;53.154;18.136;2023-03-04T22:19:31;33.58;;;12.58;;
25868;SDS011;13688;53.154;18.136;2023-03-04T22:24:57;38.90;;;13.28;;
25868;SDS011;13688;53.154;18.136;2023-03-04T22:30:21;32.55;;;12.30;;
25868;SDS011;13688;53.154;18.136;2023-03-04T22:35:46;36.17;;;14.15;;
25868;SDS011;13688;53.154;18.136;2023-03-04T22:41:16;34.38;;;13.03;;
25868;SDS011;13688;53.154;18.136;2023-03-04T22:46:37;37.67;;;14.55;;
25868;SDS011;13688;53.154;18.136;2023-03-04T22:52:00;39.45;;;14.15;;
25868;SDS011;13688;53.154;18.136;2023-03-04T22:57:26;42.35;;;14.53;;
25868;SDS011;13688;53.154;18.136;2023-03-04T23:02:51;39.75;;;15.43;;
25868;SDS011;13688;53.154;18.136;2023-03-04T23:08:15;45.20;;;15.20;;
25868;SDS011;13688;53.154;18.136;2023-03-04T23:13:40;44.08;;;14.95;;
25868;SDS011;13688;53.154;18.136;2023-03-04T23:19:08;43.13;;;15.40;;
25868;SDS011;13688;53.154;18.136;2023-03-04T23:24:33;40.03;;;15.05;;
25868;SDS011;13688;53.154;18.136;2023-03-04T23:30:00;40.92;;;15.58;;
25868;SDS011;13688;53.154;18.136;2023-03-04T23:35:26;52.30;;;17.20;;
25868;SDS011;13688;53.154;18.136;2023-03-04T23:40:51;47.38;;;15.23;;
25868;SDS011;13688;53.154;18.136;2023-03-04T23:46:16;45.40;;;15.58;;
25868;SDS011;13688;53.154;18.136;2023-03-04T23:51:41;52.53;;;17.25;;
25868;SDS011;13688;53.154;18.136;2023-03-04T23:57:06;42.80;;;15.63;;
